Time;durP1;ratioP1;P1;durP2;ratioP2;P2;SDS_P1;SDS_P2;PMS_P1;PMS_P2;Temp;Humidity;BMP_temperature;BMP_pressure;BME280_temperature;BME280_humidity;BME280_pressure;Samples;Min_cycle;Max_cycle;Signal;HPM_P1;HPM_P2
2024/03/13 00:00:09;;;;;;;12.30;9.20;;;;;;;9.04;100.00;92471.50;5105842;28;20039;-74
2024/03/13 00:02:38;;;;;;;11.02;8.10;;;;;;;9.02;100.00;92462.47;5109185;28;20075;-73
2024/03/13 00:05:06;;;;;;;11.63;8.45;;;;;;;9.02;100.00;92465.03;5102618;28;20047;-73
2024/03/13 00:07:33;;;;;;;10.40;8.38;;;;;;;9.04;100.00;92463.03;5106872;28;20142;-74
2024/03/13 00:10:01;;;;;;;11.07;7.93;;;;;;;9.07;100.00;92463.38;5105480;28;20158;-73
2024/03/13 00:12:30;;;;;;;10.63;7.75;;;;;;;9.06;100.00;92456.69;5110096;28;20074;-74
2024/03/13 00:14:57;;;;;;;10.52;8.82;;;;;;;9.07;100.00;92460.00;5103605;28;20043;-75
2024/03/13 00:17:24;;;;;;;11.07;7.82;;;;;;;9.10;100.00;92462.16;5109804;28;20062;-73
2024/03/13 00:19:54;;;;;;;11.40;8.25;;;;;;;9.12;100.00;92456.81;5109110;28;20493;-73
2024/03/13 00:22:22;;;;;;;10.75;7.88;;;;;;;9.07;100.00;92460.81;5109337;28;20047;-73
2024/03/13 00:24:49;;;;;;;10.65;6.82;;;;;;;9.04;100.00;92456.13;5108642;28;20044;-74
2024/03/13 00:27:16;;;;;;;10.85;7.72;;;;;;;8.96;100.00;92446.19;5104418;28;20057;-74
2024/03/13 00:29:44;;;;;;;10.57;6.65;;;;;;;9.04;100.00;92456.13;5108209;28;20068;-74
2024/03/13 00:32:12;;;;;;;9.88;6.65;;;;;;;9.07;100.00;92460.00;5105715;28;20048;-74
2024/03/13 00:34:40;;;;;;;8.93;6.20;;;;;;;9.06;100.00;92453.34;5106491;28;20047;-74
2024/03/13 00:37:08;;;;;;;11.98;6.28;;;;;;;8.99;100.00;92456.00;5109272;28;20043;-74
2024/03/13 00:39:35;;;;;;;10.27;6.47;;;;;;;8.97;100.00;92460.56;5106899;28;20096;-74
2024/03/13 00:42:03;;;;;;;8.82;6.30;;;;;;;8.96;100.00;92464.13;5103504;28;20420;-74
2024/03/13 00:44:30;;;;;;;9.30;6.55;;;;;;;8.87;100.00;92445.72;5106136;28;20062;-74
2024/03/13 00:46:57;;;;;;;10.77;7.05;;;;;;;8.96;100.00;92453.88;5109440;28;20047;-74
2024/03/13 00:49:24;;;;;;;9.27;6.93;;;;;;;8.97;100.00;92439.28;5109428;28;20058;-74
2024/03/13 00:51:51;;;;;;;11.15;8.25;;;;;;;8.87;100.00;92427.78;5101954;28;20585;-74
2024/03/13 00:54:21;;;;;;;10.95;8.13;;;;;;;8.94;100.00;92446.41;5103119;28;20039;-74
2024/03/13 00:56:48;;;;;;;11.25;8.18;;;;;;;8.90;100.00;92440.16;5102968;28;20058;-74
2024/03/13 00:59:16;;;;;;;11.18;9.07;;;;;;;8.93;100.00;92444.84;5101393;28;20062;-74
2024/03/13 01:01:44;;;;;;;16.08;11.13;;;;;;;8.82;100.00;92425.88;5106271;28;20413;-74
2024/03/13 01:04:11;;;;;;;13.70;9.82;;;;;;;8.90;100.00;92439.38;5103841;28;20083;-74
2024/03/13 01:06:39;;;;;;;13.52;10.07;;;;;;;8.66;100.00;92406.78;5109010;28;20043;-74
2024/03/13 01:09:09;;;;;;;14.30;10.57;;;;;;;8.87;100.00;92435.47;5103928;28;20065;-74
2024/03/13 01:11:38;;;;;;;11.57;9.38;;;;;;;8.84;100.00;92427.44;5107258;28;20052;-74
2024/03/13 01:14:05;;;;;;;12.07;9.02;;;;;;;8.83;100.00;92429.22;5106703;28;20058;-73
2024/03/13 01:16:32;;;;;;;11.88;8.73;;;;;;;8.75;100.00;92414.94;5109185;28;20048;-73
2024/03/13 01:18:59;;;;;;;12.82;8.82;;;;;;;8.81;100.00;92436.34;5105239;28;20044;-73
2024/03/13 01:21:26;;;;;;;11.70;9.23;;;;;;;8.81;100.00;92424.31;5107877;28;20051;-73
2024/03/13 01:23:53;;;;;;;11.23;8.20;;;;;;;8.77;100.00;92400.16;5105295;28;20416;-73
2024/03/13 01:26:20;;;;;;;11.00;8.25;;;;;;;8.88;100.00;92424.22;5104728;28;20054;-73
2024/03/13 01:28:49;;;;;;;12.10;8.80;;;;;;;8.90;100.00;92417.13;5108275;28;20043;-73
2024/03/13 01:31:16;;;;;;;11.93;7.75;;;;;;;8.88;100.00;92426.78;5100344;28;20658;-73
2024/03/13 01:33:43;;;;;;;9.63;7.40;;;;;;;8.92;100.00;92424.56;5103890;28;20452;-73
2024/03/13 01:36:10;;;;;;;8.13;5.57;;;;;;;8.90;100.00;92424.00;5105082;28;20065;-73
2024/03/13 01:38:36;;;;;;;6.05;4.47;;;;;;;8.89;100.00;92425.00;5102857;28;20050;-73
2024/03/13 01:55:06;;;;;;;6.05;5.00;;;;;;;8.88;100.00;92420.91;5102603;28;20067;-74
2024/03/13 01:57:45;;;;;;;7.15;5.53;;;;;;;8.89;100.00;92420.66;5108011;28;20523;-73
2024/03/13 02:02:59;;;;;;;6.88;4.88;;;;;;;8.90;100.00;92424.81;5102797;28;20086;-73
2024/03/13 02:05:26;;;;;;;7.75;5.00;;;;;;;8.92;100.00;92425.34;5103653;28;20518;-74
2024/03/13 02:07:54;;;;;;;5.55;4.35;;;;;;;8.91;100.00;92415.31;5103563;28;20050;-73
2024/03/13 02:10:21;;;;;;;4.95;3.53;;;;;;;8.95;100.00;92422.34;5108016;28;20402;-73
2024/03/13 02:13:05;;;;;;;5.18;4.07;;;;;;;8.95;100.00;92421.56;5107018;28;20054;-73
2024/03/13 02:15:34;;;;;;;7.47;4.22;;;;;;;8.94;100.00;92423.34;5102011;28;20512;-75
2024/03/13 02:18:02;;;;;;;6.07;4.88;;;;;;;8.86;100.00;92404.94;5100625;28;20508;-74
2024/03/13 02:20:30;;;;;;;5.38;4.07;;;;;;;8.79;100.00;92398.16;5107482;28;20043;-75
2024/03/13 02:23:04;;;;;;;6.10;4.95;;;;;;;8.88;100.00;92413.97;5107291;28;20044;-74
2024/03/13 02:25:31;;;;;;;5.60;4.68;;;;;;;8.65;100.00;92419.78;5101681;28;20051;-74
2024/03/13 02:28:00;;;;;;;6.55;5.30;;;;;;;8.59;100.00;92415.53;5069883;28;20048;-74
2024/03/13 02:30:27;;;;;;;9.60;7.30;;;;;;;8.37;100.00;92392.94;5066580;28;20044;-74
2024/03/13 02:32:54;;;;;;;7.25;5.57;;;;;;;8.58;100.00;92419.09;5069930;28;20071;-74
2024/03/13 02:35:21;;;;;;;7.82;5.95;;;;;;;8.61;100.00;92418.69;5067605;28;20056;-74
2024/03/13 02:37:48;;;;;;;6.93;5.15;;;;;;;8.68;100.00;92424.50;5072604;28;20043;-74
2024/03/13 02:40:16;;;;;;;5.97;4.50;;;;;;;8.69;100.00;92419.16;5069089;28;20138;-74
2024/03/13 02:42:44;;;;;;;5.88;4.70;;;;;;;8.49;100.00;92388.69;5072616;28;20416;-73
2024/03/13 02:45:13;;;;;;;6.78;4.43;;;;;;;8.74;100.00;92426.19;5070322;28;20048;-73
2024/03/13 02:47:41;;;;;;;5.55;4.45;;;;;;;8.80;100.00;92421.97;5070901;28;20071;-73
2024/03/13 02:50:11;;;;;;;5.70;4.63;;;;;;;8.85;100.00;92419.56;5072890;28;20100;-73
2024/03/13 02:52:38;;;;;;;7.68;6.43;;;;;;;8.78;100.00;92426.53;5073150;28;20043;-73
2024/03/13 02:55:05;;;;;;;7.28;5.88;;;;;;;8.87;100.00;92421.88;5069843;28;20062;-73
2024/03/13 02:57:32;;;;;;;8.52;6.40;;;;;;;8.90;100.00;92419.69;5072278;28;20050;-73
2024/03/13 02:59:59;;;;;;;8.88;7.35;;;;;;;8.78;100.00;92398.34;5072336;28;20863;-73
2024/03/13 03:02:27;;;;;;;9.02;8.00;;;;;;;8.90;100.00;92419.69;5071204;28;20039;-73
2024/03/13 03:04:56;;;;;;;9.13;7.70;;;;;;;8.90;100.00;92417.13;5063722;28;20606;-73
2024/03/13 03:07:23;;;;;;;7.90;6.28;;;;;;;8.88;100.00;92424.22;5071470;28;20097;-73
2024/03/13 03:09:50;;;;;;;7.82;5.05;;;;;;;8.86;100.00;92416.00;5067884;28;20050;-73
2024/03/13 03:12:18;;;;;;;6.10;4.60;;;;;;;8.73;100.00;92411.81;5072289;28;20055;-73
2024/03/13 03:14:45;;;;;;;4.22;3.30;;;;;;;8.82;100.00;92420.78;5071822;28;20432;-74
2024/03/13 03:17:14;;;;;;;5.90;4.28;;;;;;;8.77;100.00;92427.53;5067735;28;20527;-74
2024/03/13 03:19:41;;;;;;;4.65;3.72;;;;;;;8.72;100.00;92420.50;5071874;28;20039;-73
2024/03/13 03:22:09;;;;;;;4.60;3.70;;;;;;;8.75;100.00;92422.63;5064793;28;20052;-73
2024/03/13 03:24:36;;;;;;;6.25;4.82;;;;;;;8.63;100.00;92425.16;5069850;28;20586;-74
2024/03/13 03:27:03;;;;;;;9.13;6.28;;;;;;;8.46;100.00;92416.47;5071990;28;20051;-73
2024/03/13 03:29:29;;;;;;;13.13;11.23;;;;;;;8.47;100.00;92425.72;5072012;28;20151;-73
2024/03/13 03:31:56;;;;;;;15.45;12.35;;;;;;;8.35;100.00;92420.53;5072755;28;20062;-74
2024/03/13 03:34:24;;;;;;;16.73;14.93;;;;;;;8.49;100.00;92421.16;5066339;28;20056;-75
2024/03/13 03:36:52;;;;;;;16.45;11.25;;;;;;;8.49;100.00;92426.28;5064496;28;20079;-73
2024/03/13 03:39:24;;;;;;;16.50;13.52;;;;;;;8.41;100.00;92423.03;5072716;28;20043;-73
2024/03/13 03:41:52;;;;;;;12.38;8.52;;;;;;;8.43;100.00;92433.06;5065565;28;20073;-73
2024/03/13 03:44:19;;;;;;;13.55;8.57;;;;;;;8.02;100.00;92425.03;5068051;28;20857;-73
2024/03/13 03:46:46;;;;;;;19.50;9.82;;;;;;;7.85;100.00;92425.59;5072071;28;20052;-73
2024/03/13 03:49:12;;;;;;;18.33;10.45;;;;;;;7.86;100.00;92423.81;5068247;28;20052;-73
2024/03/13 03:51:39;;;;;;;15.85;9.40;;;;;;;7.99;100.00;92431.34;5067180;28;20401;-73
2024/03/13 03:54:06;;;;;;;15.02;8.40;;;;;;;7.94;100.00;92428.66;5070429;28;20060;-73
2024/03/13 03:56:38;;;;;;;15.52;9.02;;;;;;;7.93;100.00;92432.22;5072275;28;20048;-73
2024/03/13 03:59:06;;;;;;;13.50;7.75;;;;;;;7.73;100.00;92427.28;5071523;28;20044;-73
2024/03/13 04:01:33;;;;;;;13.02;7.35;;;;;;;7.79;100.00;92431.56;5071329;28;20490;-73
2024/03/13 04:04:00;;;;;;;10.80;5.85;;;;;;;7.73;100.00;92429.84;5068055;28;20051;-73
2024/03/13 04:06:27;;;;;;;13.07;6.60;;;;;;;7.77;100.00;92432.75;5064613;28;20051;-74
2024/03/13 04:08:54;;;;;;;10.88;6.00;;;;;;;7.68;100.00;92429.69;5072275;28;20048;-73
2024/03/13 04:11:21;;;;;;;8.88;5.43;;;;;;;7.50;100.00;92413.31;5068447;28;20052;-74
2024/03/13 04:13:48;;;;;;;8.65;5.32;;;;;;;7.60;100.00;92431.50;5085329;28;20055;-74
2024/03/13 04:16:16;;;;;;;8.65;6.22;;;;;;;7.64;100.00;92431.09;5068357;28;20083;-73
2024/03/13 04:18:43;;;;;;;7.95;5.38;;;;;;;7.60;100.00;92425.63;5068293;28;20045;-73
2024/03/13 04:21:10;;;;;;;6.13;4.90;;;;;;;7.47;100.00;92408.63;5068010;28;20048;-73
2024/03/13 04:23:38;;;;;;;7.97;6.00;;;;;;;7.48;100.00;92430.63;5071312;28;20048;-73
2024/03/13 04:26:05;;;;;;;9.23;5.97;;;;;;;7.58;100.00;92414.81;5070964;28;20047;-73
2024/03/13 04:28:37;;;;;;;8.23;4.28;;;;;;;7.65;100.00;92430.91;5063054;28;20049;-73
2024/03/13 04:31:04;;;;;;;9.73;6.25;;;;;;;7.61;100.00;92434.88;5071665;28;20044;-73
2024/03/13 04:33:42;;;;;;;10.30;7.05;;;;;;;7.19;100.00;92356.22;5065773;28;20050;-73
2024/03/13 04:36:13;;;;;;;10.35;8.55;;;;;;;6.84;100.00;92354.91;5068833;28;20051;-73
2024/03/13 04:38:50;;;;;;;9.93;7.82;;;;;;;7.64;100.00;92443.88;5071631;28;20074;-73
2024/03/13 04:41:18;;;;;;;16.48;11.18;;;;;;;7.61;100.00;92434.88;5068992;28;20084;-73
2024/03/13 04:43:45;;;;;;;13.55;10.13;;;;;;;7.85;100.00;92445.25;5070304;28;20044;-73
2024/03/13 04:46:15;;;;;;;7.50;6.30;;;;;;;7.60;100.00;92456.31;5063050;28;20101;-73
2024/03/13 04:48:42;;;;;;;8.35;6.13;;;;;;;7.34;100.00;92456.31;5069468;28;20055;-73
2024/03/13 04:51:09;;;;;;;5.47;4.35;;;;;;;6.91;100.00;92439.88;5070890;28;20075;-73
2024/03/13 04:53:45;;;;;;;8.38;6.32;;;;;;;7.27;100.00;92449.69;5071121;28;20667;-73
2024/03/13 04:56:12;;;;;;;6.15;4.80;;;;;;;6.99;100.00;92463.63;5069377;28;20048;-73
2024/03/13 04:58:39;;;;;;;6.18;5.35;;;;;;;7.09;100.00;92462.16;5066118;28;20047;-73
2024/03/13 05:01:07;;;;;;;7.47;5.97;;;;;;;6.97;100.00;92460.47;5070931;28;20665;-73
2024/03/13 05:03:35;;;;;;;6.75;4.90;;;;;;;7.03;100.00;92470.66;5069321;28;20048;-73
2024/03/13 05:06:02;;;;;;;7.20;5.47;;;;;;;7.18;100.00;92465.25;5065803;28;20092;-74
2024/03/13 05:08:29;;;;;;;6.97;5.20;;;;;;;7.18;100.00;92474.69;5067067;28;20058;-73
2024/03/13 05:10:56;;;;;;;6.00;5.22;;;;;;;7.19;100.00;92471.16;5069915;28;20059;-73
2024/03/13 05:13:23;;;;;;;5.60;4.78;;;;;;;7.06;100.00;92472.81;5067824;28;20070;-73
2024/03/13 05:15:51;;;;;;;6.28;5.05;;;;;;;7.06;100.00;92480.47;5064572;28;20063;-74
2024/03/13 05:18:18;;;;;;;9.85;8.55;;;;;;;6.79;100.00;92478.06;5067798;28;20040;-73
2024/03/13 05:20:45;;;;;;;10.95;8.63;;;;;;;6.51;100.00;92481.72;5069804;28;20048;-73
2024/03/13 05:23:17;;;;;;;10.65;9.02;;;;;;;5.85;100.00;92409.50;5067377;28;20067;-73
2024/03/13 05:25:44;;;;;;;9.88;8.82;;;;;;;6.61;100.00;92488.94;5069129;28;20048;-74
2024/03/13 05:28:11;;;;;;;10.00;8.68;;;;;;;6.34;100.00;92485.69;5069986;28;20044;-73
2024/03/13 05:30:37;;;;;;;9.50;8.07;;;;;;;5.99;100.00;92496.91;5068152;28;20048;-74
2024/03/13 05:33:06;;;;;;;9.75;8.38;;;;;;;5.99;100.00;92492.63;5067018;28;20037;-73
2024/03/13 05:35:33;;;;;;;9.30;8.23;;;;;;;5.97;100.00;92496.34;5083434;28;20101;-73
2024/03/13 05:37:59;;;;;;;9.60;7.95;;;;;;;6.07;100.00;92499.28;5083212;28;20050;-73
2024/03/13 05:40:26;;;;;;;11.38;10.18;;;;;;;6.29;100.00;92501.59;5062294;28;20131;-73
2024/03/13 05:42:54;;;;;;;11.10;9.95;;;;;;;6.25;100.00;92508.84;5058656;28;20056;-73
2024/03/13 05:45:20;;;;;;;7.97;6.70;;;;;;;5.98;100.00;92506.31;5068758;28;20048;-73
2024/03/13 05:47:48;;;;;;;8.63;7.65;;;;;;;6.17;100.00;92504.00;5066925;28;20497;-72
2024/03/13 05:50:17;;;;;;;13.82;9.90;;;;;;;6.33;100.00;92502.75;5068201;28;20051;-72
2024/03/13 05:52:45;;;;;;;9.15;8.05;;;;;;;6.06;100.00;92513.00;5069772;28;20051;-72
2024/03/13 05:55:12;;;;;;;11.70;9.52;;;;;;;6.14;100.00;92504.38;5066765;28;20040;-72
2024/03/13 05:57:39;;;;;;;7.68;6.80;;;;;;;6.22;100.00;92509.28;5066174;28;20054;-73
2024/03/13 06:00:09;;;;;;;9.27;8.30;;;;;;;6.12;100.00;92512.22;5068500;28;20109;-73
2024/03/13 06:02:36;;;;;;;9.23;7.90;;;;;;;6.09;100.00;92514.38;5066441;28;20480;-72
2024/03/13 06:05:09;;;;;;;8.55;7.32;;;;;;;6.33;100.00;92522.38;5058151;28;20044;-73
2024/03/13 06:07:37;;;;;;;9.38;8.20;;;;;;;6.35;100.00;92518.63;5065610;28;20074;-73
2024/03/13 06:10:05;;;;;;;8.50;6.55;;;;;;;6.18;100.00;92531.03;5068811;28;20567;-73
2024/03/13 06:12:33;;;;;;;8.50;7.20;;;;;;;6.23;100.00;92528.69;5068349;28;20621;-73
2024/03/13 06:15:00;;;;;;;7.70;6.90;;;;;;;6.19;100.00;92507.09;5057819;28;20045;-73
2024/03/13 06:17:27;;;;;;;10.57;8.38;;;;;;;6.27;100.00;92534.16;5067570;28;20424;-73
2024/03/13 06:19:54;;;;;;;8.73;6.75;;;;;;;6.28;100.00;92522.97;5067765;28;20044;-73
2024/03/13 06:22:21;;;;;;;11.35;9.52;;;;;;;6.17;100.00;92538.88;5065847;28;20058;-73
2024/03/13 06:24:48;;;;;;;14.10;9.75;;;;;;;6.18;100.00;92533.59;5067303;28;20537;-73
2024/03/13 06:27:16;;;;;;;17.52;13.77;;;;;;;6.13;100.00;92541.06;5066994;28;20528;-73
2024/03/13 06:29:58;;;;;;;10.60;9.00;;;;;;;6.09;100.00;92542.44;5060695;28;20044;-73
2024/03/13 06:32:26;;;;;;;18.58;15.07;;;;;;;6.26;100.00;92545.34;5059260;28;20098;-73
2024/03/13 06:34:55;;;;;;;14.35;12.25;;;;;;;6.41;100.00;92548.47;5055536;28;20051;-73
2024/03/13 06:37:22;;;;;;;16.77;14.27;;;;;;;6.55;100.00;92550.97;5052588;28;20044;-73
2024/03/13 06:39:49;;;;;;;15.07;10.15;;;;;;;6.51;100.00;92542.16;5055628;28;20041;-73
2024/03/13 06:42:16;;;;;;;14.43;9.55;;;;;;;6.59;100.00;92541.94;5062414;28;20056;-73
2024/03/13 06:44:44;;;;;;;15.98;12.35;;;;;;;6.48;100.00;92540.78;5063122;28;20051;-73
2024/03/13 06:47:11;;;;;;;15.18;12.00;;;;;;;6.60;100.00;92543.50;5073777;28;20045;-73
2024/03/13 06:49:38;;;;;;;14.60;10.90;;;;;;;6.67;100.00;92551.91;5060777;28;20045;-74
2024/03/13 06:52:05;;;;;;;8.45;7.43;;;;;;;6.78;100.00;92549.72;5054456;28;20121;-73
2024/03/13 06:54:32;;;;;;;9.43;7.28;;;;;;;6.83;100.00;92552.44;5054017;28;20045;-73
2024/03/13 06:56:59;;;;;;;11.05;9.13;;;;;;;6.66;100.00;92517.16;5051153;28;20067;-73
2024/03/13 06:59:26;;;;;;;11.50;8.45;;;;;;;7.08;100.00;92555.09;5058422;28;20387;-73
2024/03/13 07:01:55;;;;;;;10.13;8.65;;;;;;;7.32;100.00;92560.47;5055966;28;20131;-73
2024/03/13 07:04:23;;;;;;;10.88;9.48;;;;;;;7.42;100.00;92561.78;5052096;28;20045;-73
2024/03/13 07:06:56;;;;;;;13.20;9.90;;;;;;;7.62;100.00;92565.00;5066950;28;20074;-74
2024/03/13 07:09:23;;;;;;;5.90;4.65;;;;;;;7.24;100.00;92570.94;5058005;28;20059;-74
2024/03/13 07:11:51;;;;;;;6.53;5.22;;;;;;;7.04;100.00;92566.69;5066999;28;20066;-73
2024/03/13 07:14:18;;;;;;;8.05;6.07;;;;;;;6.87;100.00;92570.69;5063183;28;20045;-73
2024/03/13 07:16:45;;;;;;;8.20;5.63;;;;;;;6.73;100.00;92572.50;5052089;28;20052;-73
2024/03/13 07:19:13;;;;;;;7.47;6.10;;;;;;;6.63;100.00;92572.94;5053075;28;20055;-73
2024/03/13 07:21:40;;;;;;;7.47;6.50;;;;;;;6.50;100.00;92579.66;5056182;28;20556;-73
2024/03/13 07:24:07;;;;;;;11.93;9.30;;;;;;;6.66;100.00;92580.19;5057471;28;20143;-73
2024/03/13 07:26:34;;;;;;;12.35;7.43;;;;;;;6.79;100.00;92585.25;5060720;28;20054;-73
2024/03/13 07:29:01;;;;;;;9.35;7.65;;;;;;;6.88;100.00;92583.25;5065774;28;20039;-73
2024/03/13 07:31:28;;;;;;;10.70;8.35;;;;;;;7.01;100.00;92582.44;5057342;28;20580;-73
2024/03/13 07:33:55;;;;;;;10.20;8.32;;;;;;;7.13;100.00;92577.44;5059482;28;20043;-73
2024/03/13 07:36:22;;;;;;;9.48;7.63;;;;;;;7.18;100.00;92590.41;5061626;28;20122;-73
2024/03/13 07:38:49;;;;;;;7.82;5.97;;;;;;;7.05;100.00;92567.50;5054217;28;20051;-73
2024/03/13 07:41:16;;;;;;;9.73;7.88;;;;;;;7.08;100.00;92582.38;5068298;28;20071;-73
2024/03/13 07:43:42;;;;;;;10.95;8.98;;;;;;;7.09;100.00;92583.97;5055152;28;20051;-73
2024/03/13 07:46:10;;;;;;;9.93;7.70;;;;;;;7.25;100.00;92577.59;5054328;28;20036;-73
2024/03/13 07:48:37;;;;;;;10.98;8.52;;;;;;;7.38;100.00;92565.75;5053663;28;20044;-73
2024/03/13 07:51:06;;;;;;;11.45;8.52;;;;;;;7.73;100.00;92586.56;5053966;28;20154;-73
2024/03/13 07:53:33;;;;;;;10.55;8.32;;;;;;;7.24;100.00;92588.81;5055618;28;20142;-73
2024/03/13 07:56:00;;;;;;;14.50;7.78;;;;;;;6.81;100.00;92587.63;5055949;28;20130;-73
2024/03/13 07:58:27;;;;;;;15.77;8.57;;;;;;;7.27;100.00;92585.06;5054590;28;20043;-73
2024/03/13 08:00:54;;;;;;;11.10;8.20;;;;;;;7.33;100.00;92587.56;5055038;28;20058;-73
2024/03/13 08:03:21;;;;;;;13.13;8.85;;;;;;;7.34;100.00;92586.59;5058082;28;20058;-73
2024/03/13 08:05:48;;;;;;;9.13;7.28;;;;;;;7.37;100.00;92590.53;5053177;28;20871;-73
2024/03/13 08:08:15;;;;;;;7.00;5.88;;;;;;;7.24;100.00;92593.94;5054083;28;20048;-74
2024/03/13 08:10:42;;;;;;;8.13;6.82;;;;;;;7.65;100.00;92593.69;5054690;28;20043;-73
2024/03/13 08:13:09;;;;;;;8.77;7.82;;;;;;;7.51;100.00;92591.22;5074048;28;20054;-73
2024/03/13 08:15:36;;;;;;;8.13;5.93;;;;;;;7.37;100.00;92597.41;5065478;28;20055;-73
2024/03/13 08:18:04;;;;;;;17.02;8.50;;;;;;;7.32;100.00;92596.22;5058286;28;20523;-73
2024/03/13 08:20:32;;;;;;;14.77;7.97;;;;;;;7.27;100.00;92600.41;5057061;28;20067;-73
2024/03/13 08:22:59;;;;;;;6.32;4.95;;;;;;;7.17;100.00;92601.59;5060039;28;20049;-73
2024/03/13 08:25:26;;;;;;;18.95;12.30;;;;;;;7.12;100.00;92596.31;5065038;28;20048;-73
2024/03/13 08:27:53;;;;;;;6.55;5.68;;;;;;;7.17;100.00;92604.16;5072156;28;20041;-73
2024/03/13 08:30:20;;;;;;;7.38;6.00;;;;;;;7.21;100.00;92602.78;5052904;28;20822;-73
2024/03/13 08:32:48;;;;;;;8.00;5.55;;;;;;;7.48;100.00;92597.53;5057139;28;20048;-73
2024/03/13 08:35:14;;;;;;;7.10;4.78;;;;;;;7.42;100.00;92605.22;5056699;28;20071;-73
2024/03/13 08:37:42;;;;;;;7.50;5.90;;;;;;;7.41;100.00;92601.88;5057579;28;20481;-73
2024/03/13 08:40:11;;;;;;;6.82;5.65;;;;;;;7.58;100.00;92603.94;5063906;28;20080;-73
2024/03/13 08:42:39;;;;;;;6.80;5.22;;;;;;;7.78;100.00;92610.72;5055086;28;20053;-73
2024/03/13 08:45:08;;;;;;;5.40;4.45;;;;;;;7.91;100.00;92609.84;5052788;28;20052;-73
2024/03/13 08:47:35;;;;;;;6.20;4.30;;;;;;;8.00;100.00;92609.38;5053141;28;20110;-73
2024/03/13 08:50:03;;;;;;;5.72;4.63;;;;;;;7.73;100.00;92614.69;5053056;28;20047;-73
2024/03/13 08:52:30;;;;;;;5.85;4.57;;;;;;;7.79;100.00;92623.31;5058068;28;20044;-73
2024/03/13 08:54:57;;;;;;;6.72;5.40;;;;;;;7.85;100.00;92619.91;5054667;28;20437;-73
2024/03/13 08:57:24;;;;;;;6.65;5.28;;;;;;;7.90;100.00;92619.28;5052171;28;20059;-73
2024/03/13 08:59:51;;;;;;;7.88;4.75;;;;;;;7.47;100.00;92611.31;5059228;28;20044;-73
2024/03/13 09:02:18;;;;;;;10.73;4.85;;;;;;;7.75;100.00;92615.28;5058743;28;20052;-73
2024/03/13 09:05:05;;;;;;;12.13;5.40;;;;;;;7.88;100.00;92614.38;5053910;28;20091;-73
2024/03/13 09:07:32;;;;;;;9.00;6.40;;;;;;;7.88;100.00;92623.84;5071990;28;20050;-73
2024/03/13 09:09:59;;;;;;;7.45;5.88;;;;;;;8.12;100.00;92624.84;5053147;28;20800;-74
2024/03/13 09:12:27;;;;;;;12.02;6.20;;;;;;;8.15;100.00;92626.22;5059702;28;20049;-74
2024/03/13 09:14:54;;;;;;;11.45;6.40;;;;;;;8.11;100.00;92605.34;5052279;28;20056;-73
2024/03/13 09:17:22;;;;;;;11.95;6.53;;;;;;;8.65;100.00;92629.72;5052839;28;20063;-73
2024/03/13 09:19:51;;;;;;;11.43;7.35;;;;;;;8.96;100.00;92620.38;5055978;28;20048;-72
2024/03/13 09:22:18;;;;;;;24.30;13.27;;;;;;;9.20;100.00;92615.34;5054600;28;20427;-73
2024/03/13 09:24:45;;;;;;;12.73;7.40;;;;;;;9.46;100.00;92616.84;5069470;28;20381;-73
2024/03/13 09:27:12;;;;;;;12.70;7.22;;;;;;;9.71;100.00;92622.81;5054252;28;20049;-73
2024/03/13 09:29:39;;;;;;;12.32;8.73;;;;;;;9.96;100.00;92614.19;5056598;28;20045;-73
2024/03/13 09:32:06;;;;;;;9.70;7.00;;;;;;;10.17;100.00;92623.13;5054363;28;20804;-73
2024/03/13 09:34:33;;;;;;;9.98;6.72;;;;;;;10.38;100.00;92624.38;5054780;28;20051;-73
2024/03/13 09:37:04;;;;;;;9.98;6.65;;;;;;;10.63;100.00;92631.13;5053889;28;20051;-73
2024/03/13 09:39:30;;;;;;;5.95;4.43;;;;;;;10.47;98.06;92631.78;5068589;28;20498;-73
2024/03/13 09:41:58;;;;;;;9.10;4.60;;;;;;;10.92;100.00;92633.00;5056544;28;20048;-74
2024/03/13 09:44:25;;;;;;;6.65;4.65;;;;;;;11.00;98.96;92634.41;5051502;28;20040;-74
2024/03/13 09:46:52;;;;;;;6.82;3.90;;;;;;;11.16;100.00;92630.38;5053736;28;20044;-73
2024/03/13 09:49:19;;;;;;;5.65;4.60;;;;;;;11.27;98.48;92632.16;5053681;28;20052;-74
2024/03/13 09:51:46;;;;;;;5.13;4.07;;;;;;;11.19;89.83;92637.63;5051395;28;20490;-74
2024/03/13 09:54:14;;;;;;;8.18;5.38;;;;;;;11.15;95.80;92632.16;5054064;28;20068;-73
2024/03/13 09:56:41;;;;;;;9.60;5.50;;;;;;;11.18;99.91;92626.59;5051413;28;20517;-73
2024/03/13 09:59:09;;;;;;;4.40;3.35;;;;;;;10.60;92.29;92639.25;5054636;28;20494;-74
2024/03/13 10:01:36;;;;;;;4.80;3.78;;;;;;;9.14;99.22;92626.47;5051323;28;20048;-73
2024/03/13 10:04:10;;;;;;;4.20;3.45;;;;;;;9.46;100.00;92639.91;5052121;28;20048;-73
2024/03/13 10:06:37;;;;;;;7.35;3.88;;;;;;;9.96;100.00;92621.88;5054584;28;20048;-73
2024/03/13 10:09:09;;;;;;;8.20;4.97;;;;;;;10.14;97.29;92631.28;5063502;28;20056;-74
2024/03/13 10:11:35;;;;;;;7.03;4.25;;;;;;;10.24;93.75;92628.94;5056144;28;20489;-73
2024/03/13 10:14:02;;;;;;;7.38;4.25;;;;;;;10.48;94.11;92629.00;5053339;28;20079;-74
2024/03/13 10:16:29;;;;;;;6.70;4.50;;;;;;;10.68;95.76;92623.53;5053262;28;20040;-74
2024/03/13 10:18:57;;;;;;;12.07;4.43;;;;;;;10.45;91.39;92633.81;5052461;28;20498;-73
2024/03/13 10:21:24;;;;;;;6.22;3.75;;;;;;;10.25;94.96;92629.72;5058278;28;20049;-73
2024/03/13 10:23:51;;;;;;;5.35;3.60;;;;;;;10.40;100.00;92626.72;5055014;28;20551;-74
2024/03/13 10:26:20;;;;;;;5.97;4.53;;;;;;;10.63;100.00;92615.72;5056921;28;20062;-74
2024/03/13 10:28:47;;;;;;;5.03;3.58;;;;;;;10.69;100.00;92619.16;5055073;28;20052;-73
2024/03/13 10:31:15;;;;;;;7.47;4.35;;;;;;;10.80;95.87;92622.72;5040006;28;20047;-74
2024/03/13 10:33:44;;;;;;;6.32;4.15;;;;;;;10.58;91.04;92607.91;5057287;28;20048;-74
2024/03/13 10:36:11;;;;;;;6.55;4.30;;;;;;;10.83;98.64;92610.22;5052936;28;20048;-73
2024/03/13 10:38:38;;;;;;;7.50;4.30;;;;;;;11.09;97.20;92605.59;5054348;28;20075;-73
2024/03/13 10:41:08;;;;;;;5.22;3.60;;;;;;;10.93;93.33;92608.88;5057708;28;20610;-73
2024/03/13 10:43:35;;;;;;;5.90;3.97;;;;;;;10.82;95.95;92598.38;5056453;28;20517;-73
2024/03/13 10:46:01;;;;;;;4.43;2.78;;;;;;;10.78;86.92;92615.25;5053569;28;20047;-73
2024/03/13 10:48:28;;;;;;;3.72;2.45;;;;;;;10.34;89.82;92610.44;5054651;28;20056;-73
2024/03/13 10:50:56;;;;;;;3.25;2.53;;;;;;;10.41;87.80;92607.75;5057321;28;20052;-73
2024/03/13 10:53:23;;;;;;;6.28;3.30;;;;;;;9.61;94.07;92602.81;5054398;28;20114;-72
2024/03/13 10:55:50;;;;;;;5.72;2.90;;;;;;;10.14;97.81;92579.97;5054342;28;20043;-73
2024/03/13 10:58:19;;;;;;;4.07;2.90;;;;;;;10.79;95.84;92600.63;5062737;28;20547;-73
2024/03/13 11:00:47;;;;;;;4.78;2.78;;;;;;;9.62;94.02;92592.34;5054088;28;20051;-73
2024/03/13 11:03:14;;;;;;;4.75;3.05;;;;;;;9.95;96.19;92582.59;5055344;28;20051;-73
2024/03/13 11:05:41;;;;;;;8.52;3.70;;;;;;;10.45;98.33;92583.22;5056778;28;20044;-72
2024/03/13 11:08:08;;;;;;;4.30;2.60;;;;;;;10.23;90.20;92586.31;5054464;28;20048;-73
2024/03/13 11:10:35;;;;;;;3.80;2.60;;;;;;;10.50;90.07;92591.03;5055188;28;20055;-73
2024/03/13 11:13:04;;;;;;;7.18;3.00;;;;;;;10.59;91.97;92588.13;5055660;28;20047;-73
2024/03/13 11:15:31;;;;;;;10.93;3.53;;;;;;;10.76;88.02;92586.44;5053986;28;20402;-73
2024/03/13 11:17:59;;;;;;;7.03;2.83;;;;;;;10.77;87.34;92592.34;5058021;28;20047;-73
2024/03/13 11:20:26;;;;;;;5.60;2.97;;;;;;;10.50;87.29;92588.47;5056952;28;20494;-72
2024/03/13 11:22:54;;;;;;;4.07;3.25;;;;;;;10.43;86.36;92551.88;5054550;28;20524;-73
2024/03/13 11:25:21;;;;;;;3.25;2.30;;;;;;;10.59;88.04;92585.56;5053945;28;20574;-73
2024/03/13 11:27:51;;;;;;;7.75;3.15;;;;;;;10.59;85.38;92586.34;5056875;28;20532;-73
2024/03/13 11:30:19;;;;;;;4.50;2.90;;;;;;;11.01;86.94;92585.38;5054779;28;20058;-74
2024/03/13 11:32:48;;;;;;;8.60;5.35;;;;;;;11.35;91.84;92572.63;5058400;28;20138;-73
2024/03/13 11:35:16;;;;;;;9.48;4.43;;;;;;;11.65;91.91;92578.56;5058273;28;20055;-73
2024/03/13 11:37:44;;;;;;;13.05;6.20;;;;;;;11.83;90.35;92576.78;5053523;28;20093;-73
2024/03/13 11:40:11;;;;;;;14.23;8.50;;;;;;;11.99;90.36;92573.44;5053753;28;20543;-73
2024/03/13 11:42:40;;;;;;;97.20;40.60;;;;;;;12.15;92.81;92563.41;5054110;28;20051;-74
2024/03/13 11:45:15;;;;;;;42.45;17.85;;;;;;;12.25;91.31;92567.91;5055975;28;20044;-73
2024/03/13 11:47:42;;;;;;;80.20;31.80;;;;;;;12.38;88.40;92566.81;5059685;28;20138;-73